sensor_id;sensor_type;location;lat;lon;timestamp;pressure;altitude;pressure_sealevel;temperature;humidity
9139;BME280;4604;48.616;9.548;2022-07-29T00:01:14;96701.69;;;21.60;83.00
9139;BME280;4604;48.616;9.548;2022-07-29T00:03:41;96667.09;;;21.32;83.09
9139;BME280;4604;48.616;9.548;2022-07-29T00:06:08;96686.22;;;21.55;82.74
9139;BME280;4604;48.616;9.548;2022-07-29T00:08:35;96701.47;;;21.62;82.29
9139;BME280;4604;48.616;9.548;2022-07-29T00:11:02;96696.72;;;21.64;81.16
9139;BME280;4604;48.616;9.548;2022-07-29T00:13:29;96700.25;;;21.57;81.49
9139;BME280;4604;48.616;9.548;2022-07-29T00:15:57;96680.09;;;21.42;83.05
9139;BME280;4604;48.616;9.548;2022-07-29T00:18:24;96695.56;;;21.46;84.90
9139;BME280;4604;48.616;9.548;2022-07-29T00:20:51;96687.75;;;21.31;85.09
9139;BME280;4604;48.616;9.548;2022-07-29T00:23:19;96690.44;;;21.31;84.19
9139;BME280;4604;48.616;9.548;2022-07-29T00:25:46;96667.59;;;21.09;84.40
9139;BME280;4604;48.616;9.548;2022-07-29T00:28:13;96677.03;;;21.25;83.03
9139;BME280;4604;48.616;9.548;2022-07-29T00:30:40;96655.66;;;21.05;82.76
9139;BME280;4604;48.616;9.548;2022-07-29T00:33:09;96690.00;;;21.34;82.85
9139;BME280;4604;48.616;9.548;2022-07-29T00:35:36;96692.91;;;21.33;81.89
9139;BME280;4604;48.616;9.548;2022-07-29T00:38:12;96690.28;;;21.71;78.24
9139;BME280;4604;48.616;9.548;2022-07-29T00:40:39;96701.53;;;21.48;78.82
9139;BME280;4604;48.616;9.548;2022-07-29T00:43:07;96703.19;;;21.36;81.91
9139;BME280;4604;48.616;9.548;2022-07-29T00:45:34;96697.28;;;21.27;80.44
9139;BME280;4604;48.616;9.548;2022-07-29T00:48:01;96688.59;;;21.25;79.36
9139;BME280;4604;48.616;9.548;2022-07-29T00:50:31;96693.50;;;21.35;80.59
9139;BME280;4604;48.616;9.548;2022-07-29T00:52:59;96684.28;;;21.17;81.49
9139;BME280;4604;48.616;9.548;2022-07-29T00:55:27;96683.22;;;21.25;80.16
9139;BME280;4604;48.616;9.548;2022-07-29T00:57:56;96666.69;;;21.28;79.17
9139;BME280;4604;48.616;9.548;2022-07-29T01:00:25;96668.75;;;21.33;78.41
9139;BME280;4604;48.616;9.548;2022-07-29T01:02:53;96661.50;;;21.33;77.81
9139;BME280;4604;48.616;9.548;2022-07-29T01:05:27;96659.44;;;21.35;77.75
9139;BME280;4604;48.616;9.548;2022-07-29T01:07:57;96642.31;;;21.30;77.36
9139;BME280;4604;48.616;9.548;2022-07-29T01:10:24;96652.00;;;21.37;75.91
9139;BME280;4604;48.616;9.548;2022-07-29T01:12:54;96653.25;;;21.35;76.06
9139;BME280;4604;48.616;9.548;2022-07-29T01:15:24;96653.03;;;21.36;75.78
9139;BME280;4604;48.616;9.548;2022-07-29T01:17:59;96646.63;;;21.37;75.50
9139;BME280;4604;48.616;9.548;2022-07-29T01:20:38;96658.19;;;21.45;74.23
9139;BME280;4604;48.616;9.548;2022-07-29T01:23:40;96651.34;;;21.49;73.09
9139;BME280;4604;48.616;9.548;2022-07-29T01:26:32;96648.50;;;21.37;72.48
9139;BME280;4604;48.616;9.548;2022-07-29T01:29:08;96637.34;;;21.33;72.97
9139;BME280;4604;48.616;9.548;2022-07-29T01:31:43;96652.81;;;21.38;72.20
9139;BME280;4604;48.616;9.548;2022-07-29T01:34:21;96641.88;;;21.33;73.09
9139;BME280;4604;48.616;9.548;2022-07-29T01:36:57;96646.25;;;21.27;73.56
9139;BME280;4604;48.616;9.548;2022-07-29T01:39:30;96642.34;;;21.23;73.57
9139;BME280;4604;48.616;9.548;2022-07-29T01:42:02;96636.59;;;21.20;73.01
9139;BME280;4604;48.616;9.548;2022-07-29T01:44:38;96644.03;;;21.17;73.26
9139;BME280;4604;48.616;9.548;2022-07-29T01:47:12;96643.16;;;21.30;73.55
9139;BME280;4604;48.616;9.548;2022-07-29T01:49:47;96649.31;;;21.37;73.14
9139;BME280;4604;48.616;9.548;2022-07-29T01:52:21;96648.97;;;21.21;73.87
9139;BME280;4604;48.616;9.548;2022-07-29T01:54:53;96652.47;;;21.21;74.55
9139;BME280;4604;48.616;9.548;2022-07-29T01:57:29;96646.56;;;21.06;75.15
9139;BME280;4604;48.616;9.548;2022-07-29T01:59:59;96652.78;;;21.00;75.88
9139;BME280;4604;48.616;9.548;2022-07-29T02:02:28;96646.00;;;20.97;76.03
9139;BME280;4604;48.616;9.548;2022-07-29T02:04:57;96654.84;;;20.98;76.08
9139;BME280;4604;48.616;9.548;2022-07-29T02:07:28;96657.72;;;21.03;76.25
9139;BME280;4604;48.616;9.548;2022-07-29T02:09:57;96657.50;;;21.04;76.43
9139;BME280;4604;48.616;9.548;2022-07-29T02:12:25;96656.09;;;20.95;76.78
9139;BME280;4604;48.616;9.548;2022-07-29T02:14:58;96663.53;;;20.93;77.00
9139;BME280;4604;48.616;9.548;2022-07-29T02:17:33;96666.22;;;20.86;76.91
9139;BME280;4604;48.616;9.548;2022-07-29T02:20:03;96660.88;;;20.86;77.13
9139;BME280;4604;48.616;9.548;2022-07-29T02:22:33;96666.59;;;20.97;76.85
9139;BME280;4604;48.616;9.548;2022-07-29T02:25:02;96659.41;;;20.97;77.21
9139;BME280;4604;48.616;9.548;2022-07-29T02:27:29;96656.72;;;20.97;76.57
9139;BME280;4604;48.616;9.548;2022-07-29T02:30:00;96653.59;;;21.00;75.95
9139;BME280;4604;48.616;9.548;2022-07-29T02:32:29;96653.81;;;20.99;75.65
9139;BME280;4604;48.616;9.548;2022-07-29T02:34:58;96654.22;;;21.02;75.85
9139;BME280;4604;48.616;9.548;2022-07-29T02:37:26;96651.75;;;20.94;75.07
9139;BME280;4604;48.616;9.548;2022-07-29T02:39:55;96648.69;;;20.84;74.99
9139;BME280;4604;48.616;9.548;2022-07-29T02:42:26;96654.66;;;20.92;74.36
9139;BME280;4604;48.616;9.548;2022-07-29T02:44:54;96655.50;;;20.86;73.84
9139;BME280;4604;48.616;9.548;2022-07-29T02:47:34;96657.78;;;20.83;74.37
9139;BME280;4604;48.616;9.548;2022-07-29T02:50:06;96656.38;;;20.73;75.19
9139;BME280;4604;48.616;9.548;2022-07-29T02:52:39;96649.38;;;20.66;75.93
9139;BME280;4604;48.616;9.548;2022-07-29T02:55:13;96652.47;;;20.56;76.69
9139;BME280;4604;48.616;9.548;2022-07-29T02:57:43;96653.06;;;20.51;77.03
9139;BME280;4604;48.616;9.548;2022-07-29T03:00:12;96649.78;;;20.49;78.21
9139;BME280;4604;48.616;9.548;2022-07-29T03:02:44;96651.44;;;20.44;78.69
9139;BME280;4604;48.616;9.548;2022-07-29T03:05:17;96641.13;;;20.41;78.09
9139;BME280;4604;48.616;9.548;2022-07-29T03:07:46;96652.69;;;20.41;77.73
9139;BME280;4604;48.616;9.548;2022-07-29T03:10:14;96649.38;;;20.39;77.80
9139;BME280;4604;48.616;9.548;2022-07-29T03:12:41;96649.78;;;20.43;76.74
9139;BME280;4604;48.616;9.548;2022-07-29T03:15:09;96656.38;;;20.34;77.04
9139;BME280;4604;48.616;9.548;2022-07-29T03:17:37;96655.16;;;20.36;76.61
9139;BME280;4604;48.616;9.548;2022-07-29T03:20:09;96633.31;;;20.13;77.26
9139;BME280;4604;48.616;9.548;2022-07-29T03:22:39;96645.25;;;20.23;76.54
9139;BME280;4604;48.616;9.548;2022-07-29T03:25:09;96640.31;;;20.00;77.26
9139;BME280;4604;48.616;9.548;2022-07-29T03:27:36;96638.25;;;19.89;77.97
9139;BME280;4604;48.616;9.548;2022-07-29T03:30:04;96632.06;;;19.75;79.26
9139;BME280;4604;48.616;9.548;2022-07-29T03:32:31;96636.59;;;19.68;80.65
9139;BME280;4604;48.616;9.548;2022-07-29T03:34:58;96641.13;;;19.74;81.21
9139;BME280;4604;48.616;9.548;2022-07-29T03:37:26;96644.22;;;19.84;81.82
9139;BME280;4604;48.616;9.548;2022-07-29T03:39:55;96637.00;;;19.78;81.04
9139;BME280;4604;48.616;9.548;2022-07-29T03:42:24;96639.88;;;19.70;81.00
9139;BME280;4604;48.616;9.548;2022-07-29T03:44:52;96651.56;;;19.56;81.37
9139;BME280;4604;48.616;9.548;2022-07-29T03:47:23;96654.84;;;19.51;82.17
9139;BME280;4604;48.616;9.548;2022-07-29T03:49:54;96656.69;;;19.44;83.55
9139;BME280;4604;48.616;9.548;2022-07-29T03:52:23;96651.50;;;19.36;84.08
9139;BME280;4604;48.616;9.548;2022-07-29T03:54:51;96658.09;;;19.33;84.57
9139;BME280;4604;48.616;9.548;2022-07-29T03:57:20;96668.78;;;19.27;85.18
9139;BME280;4604;48.616;9.548;2022-07-29T03:59:51;96663.44;;;19.27;85.36
9139;BME280;4604;48.616;9.548;2022-07-29T04:02:18;96683.19;;;19.25;85.53
9139;BME280;4604;48.616;9.548;2022-07-29T04:04:46;96676.78;;;19.20;85.57
9139;BME280;4604;48.616;9.548;2022-07-29T04:07:13;96668.09;;;19.05;86.19
9139;BME280;4604;48.616;9.548;2022-07-29T04:09:41;96675.03;;;18.99;86.94
9139;BME280;4604;48.616;9.548;2022-07-29T04:12:10;96676.84;;;18.85;87.39
9139;BME280;4604;48.616;9.548;2022-07-29T04:14:36;96689.59;;;18.90;87.28
9139;BME280;4604;48.616;9.548;2022-07-29T04:17:04;96667.09;;;18.77;87.62
9139;BME280;4604;48.616;9.548;2022-07-29T04:19:32;96688.97;;;18.88;87.84
9139;BME280;4604;48.616;9.548;2022-07-29T04:21:59;96686.06;;;18.83;88.41
9139;BME280;4604;48.616;9.548;2022-07-29T04:24:28;96696.56;;;18.84;89.04
9139;BME280;4604;48.616;9.548;2022-07-29T04:26:55;96650.91;;;18.57;89.22
9139;BME280;4604;48.616;9.548;2022-07-29T04:29:23;96692.66;;;18.87;89.09
9139;BME280;4604;48.616;9.548;2022-07-29T04:31:50;96691.06;;;18.92;89.76
9139;BME280;4604;48.616;9.548;2022-07-29T04:34:17;96696.41;;;18.92;89.76
9139;BME280;4604;48.616;9.548;2022-07-29T04:36:44;96708.75;;;18.93;90.35
9139;BME280;4604;48.616;9.548;2022-07-29T04:39:11;96710.63;;;18.99;90.51
9139;BME280;4604;48.616;9.548;2022-07-29T04:41:39;96705.28;;;18.99;90.54
9139;BME280;4604;48.616;9.548;2022-07-29T04:44:06;96708.22;;;19.05;90.75
9139;BME280;4604;48.616;9.548;2022-07-29T04:46:35;96667.09;;;18.77;91.20
9139;BME280;4604;48.616;9.548;2022-07-29T04:49:02;96702.84;;;19.05;91.07
9139;BME280;4604;48.616;9.548;2022-07-29T04:51:29;96690.25;;;18.98;91.45
9139;BME280;4604;48.616;9.548;2022-07-29T04:53:56;96700.03;;;19.26;90.39
9139;BME280;4604;48.616;9.548;2022-07-29T04:56:23;96712.00;;;19.30;89.86
9139;BME280;4604;48.616;9.548;2022-07-29T04:58:51;96699.00;;;19.20;90.40
9139;BME280;4604;48.616;9.548;2022-07-29T05:01:19;96708.06;;;19.26;91.14
9139;BME280;4604;48.616;9.548;2022-07-29T05:03:47;96713.19;;;19.21;91.59
9139;BME280;4604;48.616;9.548;2022-07-29T05:06:14;96651.72;;;18.86;91.67
9139;BME280;4604;48.616;9.548;2022-07-29T05:08:41;96678.59;;;19.13;91.02
9139;BME280;4604;48.616;9.548;2022-07-29T05:11:08;96698.00;;;19.28;90.72
9139;BME280;4604;48.616;9.548;2022-07-29T05:13:35;96718.03;;;19.39;90.97
9139;BME280;4604;48.616;9.548;2022-07-29T05:16:02;96706.47;;;19.38;90.52
9139;BME280;4604;48.616;9.548;2022-07-29T05:18:29;96706.31;;;19.46;90.24
9139;BME280;4604;48.616;9.548;2022-07-29T05:20:58;96704.69;;;19.52;90.03
9139;BME280;4604;48.616;9.548;2022-07-29T05:23:31;96710.47;;;19.62;89.54
9139;BME280;4604;48.616;9.548;2022-07-29T05:25:59;96710.88;;;19.59;89.81
9139;BME280;4604;48.616;9.548;2022-07-29T05:28:28;96711.78;;;19.73;89.48
9139;BME280;4604;48.616;9.548;2022-07-29T05:30:55;96701.06;;;19.73;89.37
9139;BME280;4604;48.616;9.548;2022-07-29T05:33:22;96709.75;;;19.88;89.13
9139;BME280;4604;48.616;9.548;2022-07-29T05:35:49;96713.66;;;19.99;88.46
9139;BME280;4604;48.616;9.548;2022-07-29T05:38:17;96714.09;;;20.03;87.85
9139;BME280;4604;48.616;9.548;2022-07-29T05:40:44;96718.03;;;20.14;87.15
9139;BME280;4604;48.616;9.548;2022-07-29T05:43:11;96720.69;;;20.14;87.20
9139;BME280;4604;48.616;9.548;2022-07-29T05:45:38;96700.72;;;20.09;87.29
9139;BME280;4604;48.616;9.548;2022-07-29T05:48:05;96720.72;;;20.20;87.21
9139;BME280;4604;48.616;9.548;2022-07-29T05:50:32;96712.47;;;20.28;86.79
9139;BME280;4604;48.616;9.548;2022-07-29T05:52:59;96703.19;;;20.31;86.00
9139;BME280;4604;48.616;9.548;2022-07-29T05:55:27;96717.84;;;20.55;84.79
9139;BME280;4604;48.616;9.548;2022-07-29T05:57:54;96700.53;;;20.51;85.17
9139;BME280;4604;48.616;9.548;2022-07-29T06:00:20;96708.38;;;20.66;84.90
9139;BME280;4604;48.616;9.548;2022-07-29T06:02:48;96706.31;;;20.68;85.23
9139;BME280;4604;48.616;9.548;2022-07-29T06:05:14;96679.06;;;20.51;85.83
9139;BME280;4604;48.616;9.548;2022-07-29T06:07:41;96725.25;;;20.86;85.97
9139;BME280;4604;48.616;9.548;2022-07-29T06:10:08;96735.34;;;20.91;86.64
9139;BME280;4604;48.616;9.548;2022-07-29T06:12:37;96736.16;;;21.05;87.07
9139;BME280;4604;48.616;9.548;2022-07-29T06:15:05;96735.75;;;21.01;86.91
9139;BME280;4604;48.616;9.548;2022-07-29T06:17:32;96740.28;;;21.07;85.80
9139;BME280;4604;48.616;9.548;2022-07-29T06:19:58;96713.00;;;21.10;85.76
9139;BME280;4604;48.616;9.548;2022-07-29T06:22:31;96724.50;;;21.44;83.65
9139;BME280;4604;48.616;9.548;2022-07-29T06:24:58;96731.63;;;21.70;82.51
9139;BME280;4604;48.616;9.548;2022-07-29T06:27:29;96739.41;;;21.78;81.80
9139;BME280;4604;48.616;9.548;2022-07-29T06:29:57;96735.63;;;21.93;81.12
9139;BME280;4604;48.616;9.548;2022-07-29T06:32:24;96722.38;;;21.91;81.24
9139;BME280;4604;48.616;9.548;2022-07-29T06:34:51;96725.81;;;22.05;81.79
9139;BME280;4604;48.616;9.548;2022-07-29T06:37:18;96737.53;;;22.24;80.32
9139;BME280;4604;48.616;9.548;2022-07-29T06:39:45;96740.41;;;22.22;79.30
9139;BME280;4604;48.616;9.548;2022-07-29T06:42:11;96739.50;;;22.35;77.70
9139;BME280;4604;48.616;9.548;2022-07-29T06:44:38;96740.31;;;22.36;76.78
9139;BME280;4604;48.616;9.548;2022-07-29T06:47:06;96745.91;;;22.34;77.66
9139;BME280;4604;48.616;9.548;2022-07-29T06:49:33;96754.75;;;22.41;77.98
9139;BME280;4604;48.616;9.548;2022-07-29T06:52:00;96745.09;;;22.34;77.64
9139;BME280;4604;48.616;9.548;2022-07-29T06:54:27;96743.91;;;22.23;78.42
9139;BME280;4604;48.616;9.548;2022-07-29T06:56:54;96747.56;;;22.35;78.29
9139;BME280;4604;48.616;9.548;2022-07-29T06:59:21;96755.63;;;22.35;78.37
9139;BME280;4604;48.616;9.548;2022-07-29T07:01:48;96752.44;;;22.45;77.77
9139;BME280;4604;48.616;9.548;2022-07-29T07:04:16;96764.66;;;22.41;78.69
9139;BME280;4604;48.616;9.548;2022-07-29T07:06:42;96754.97;;;22.65;77.43
9139;BME280;4604;48.616;9.548;2022-07-29T07:09:09;96754.09;;;22.71;76.87
9139;BME280;4604;48.616;9.548;2022-07-29T07:11:36;96742.44;;;22.77;76.64
9139;BME280;4604;48.616;9.548;2022-07-29T07:14:03;96751.16;;;23.04;75.79
9139;BME280;4604;48.616;9.548;2022-07-29T07:16:31;96733.53;;;23.02;74.65
9139;BME280;4604;48.616;9.548;2022-07-29T07:18:57;96760.41;;;23.45;72.44
9139;BME280;4604;48.616;9.548;2022-07-29T07:21:26;96752.13;;;23.47;71.80
9139;BME280;4604;48.616;9.548;2022-07-29T07:23:53;96771.69;;;23.72;69.90
9139;BME280;4604;48.616;9.548;2022-07-29T07:26:19;96764.75;;;23.65;68.40
9139;BME280;4604;48.616;9.548;2022-07-29T07:28:46;96758.78;;;23.44;68.76
9139;BME280;4604;48.616;9.548;2022-07-29T07:31:13;96770.28;;;23.70;69.06
9139;BME280;4604;48.616;9.548;2022-07-29T07:33:40;96773.72;;;23.96;69.00
9139;BME280;4604;48.616;9.548;2022-07-29T07:36:07;96777.44;;;23.95;67.35
9139;BME280;4604;48.616;9.548;2022-07-29T07:38:35;96768.94;;;23.79;68.71
9139;BME280;4604;48.616;9.548;2022-07-29T07:41:02;96775.16;;;23.80;69.53
9139;BME280;4604;48.616;9.548;2022-07-29T07:43:31;96766.53;;;23.71;69.12
9139;BME280;4604;48.616;9.548;2022-07-29T07:45:58;96776.25;;;23.72;70.13
9139;BME280;4604;48.616;9.548;2022-07-29T07:48:24;96767.53;;;23.58;70.34
9139;BME280;4604;48.616;9.548;2022-07-29T07:50:52;96773.66;;;23.47;69.95
9139;BME280;4604;48.616;9.548;2022-07-29T07:53:18;96776.50;;;23.52;68.97
9139;BME280;4604;48.616;9.548;2022-07-29T07:55:47;96775.25;;;23.36;69.88
9139;BME280;4604;48.616;9.548;2022-07-29T07:58:13;96766.81;;;23.63;70.80
9139;BME280;4604;48.616;9.548;2022-07-29T08:00:40;96775.53;;;23.83;69.97
9139;BME280;4604;48.616;9.548;2022-07-29T08:03:08;96773.38;;;24.04;68.49
9139;BME280;4604;48.616;9.548;2022-07-29T08:05:38;96782.00;;;24.12;68.61
9139;BME280;4604;48.616;9.548;2022-07-29T08:08:04;96783.06;;;24.23;67.17
9139;BME280;4604;48.616;9.548;2022-07-29T08:10:32;96782.94;;;24.18;67.24
9139;BME280;4604;48.616;9.548;2022-07-29T08:13:18;96776.34;;;24.14;69.14
9139;BME280;4604;48.616;9.548;2022-07-29T08:15:45;96785.63;;;24.18;68.33
9139;BME280;4604;48.616;9.548;2022-07-29T08:18:13;96761.69;;;24.10;68.29
9139;BME280;4604;48.616;9.548;2022-07-29T08:20:40;96779.47;;;24.29;66.48
9139;BME280;4604;48.616;9.548;2022-07-29T08:23:07;96762.56;;;24.22;67.64
9139;BME280;4604;48.616;9.548;2022-07-29T08:25:35;96785.59;;;24.37;67.16
9139;BME280;4604;48.616;9.548;2022-07-29T08:28:04;96790.06;;;24.43;66.59
9139;BME280;4604;48.616;9.548;2022-07-29T08:30:32;96793.56;;;24.73;65.56
9139;BME280;4604;48.616;9.548;2022-07-29T08:33:00;96799.56;;;24.75;65.08
9139;BME280;4604;48.616;9.548;2022-07-29T08:35:27;96794.88;;;24.83;65.51
9139;BME280;4604;48.616;9.548;2022-07-29T08:37:54;96795.41;;;24.61;65.04
9139;BME280;4604;48.616;9.548;2022-07-29T08:40:22;96761.19;;;24.43;65.07
9139;BME280;4604;48.616;9.548;2022-07-29T08:42:50;96797.69;;;24.88;64.51
9139;BME280;4604;48.616;9.548;2022-07-29T08:45:16;96789.00;;;24.97;64.17
9139;BME280;4604;48.616;9.548;2022-07-29T08:47:45;96781.84;;;25.15;64.50
9139;BME280;4604;48.616;9.548;2022-07-29T08:50:11;96789.28;;;25.19;63.55
9139;BME280;4604;48.616;9.548;2022-07-29T08:52:40;96787.38;;;25.20;62.73
9139;BME280;4604;48.616;9.548;2022-07-29T08:55:08;96782.88;;;25.14;63.02
9139;BME280;4604;48.616;9.548;2022-07-29T08:57:36;96778.69;;;25.30;63.43
9139;BME280;4604;48.616;9.548;2022-07-29T09:00:06;96784.31;;;25.40;63.35
9139;BME280;4604;48.616;9.548;2022-07-29T09:02:37;96778.41;;;25.43;62.07
9139;BME280;4604;48.616;9.548;2022-07-29T09:05:07;96772.56;;;25.46;61.88
9139;BME280;4604;48.616;9.548;2022-07-29T09:07:35;96792.13;;;25.65;63.38
9139;BME280;4604;48.616;9.548;2022-07-29T09:10:04;96793.94;;;25.36;61.72
9139;BME280;4604;48.616;9.548;2022-07-29T09:12:33;96793.81;;;25.42;61.64
9139;BME280;4604;48.616;9.548;2022-07-29T09:15:00;96793.50;;;25.39;61.26
9139;BME280;4604;48.616;9.548;2022-07-29T09:17:40;96792.53;;;25.45;61.31
9139;BME280;4604;48.616;9.548;2022-07-29T09:20:11;96791.91;;;25.67;60.80
9139;BME280;4604;48.616;9.548;2022-07-29T09:22:39;96798.78;;;25.98;59.90
9139;BME280;4604;48.616;9.548;2022-07-29T09:25:06;96794.53;;;26.02;60.73
9139;BME280;4604;48.616;9.548;2022-07-29T09:27:35;96794.28;;;25.51;61.14
9139;BME280;4604;48.616;9.548;2022-07-29T09:30:05;96794.84;;;25.65;57.99
9139;BME280;4604;48.616;9.548;2022-07-29T09:32:53;96791.97;;;25.83;56.93
9139;BME280;4604;48.616;9.548;2022-07-29T09:35:24;96785.88;;;25.88;57.05
9139;BME280;4604;48.616;9.548;2022-07-29T09:37:51;96804.38;;;26.08;56.71
9139;BME280;4604;48.616;9.548;2022-07-29T09:40:20;96778.41;;;26.07;56.43
9139;BME280;4604;48.616;9.548;2022-07-29T09:42:47;96794.28;;;26.32;56.50
9139;BME280;4604;48.616;9.548;2022-07-29T09:45:27;96776.34;;;26.43;55.55
9139;BME280;4604;48.616;9.548;2022-07-29T09:47:54;96780.78;;;26.49;51.42
9139;BME280;4604;48.616;9.548;2022-07-29T09:50:36;96780.09;;;26.54;51.48
9139;BME280;4604;48.616;9.548;2022-07-29T09:53:03;96782.00;;;26.41;50.96
9139;BME280;4604;48.616;9.548;2022-07-29T09:55:40;96777.69;;;26.29;52.25
9139;BME280;4604;48.616;9.548;2022-07-29T09:58:16;96784.09;;;26.22;50.53
9139;BME280;4604;48.616;9.548;2022-07-29T10:00:44;96768.94;;;26.21;52.17
9139;BME280;4604;48.616;9.548;2022-07-29T10:03:11;96758.97;;;26.39;51.05
9139;BME280;4604;48.616;9.548;2022-07-29T10:05:40;96774.88;;;26.52;48.55
9139;BME280;4604;48.616;9.548;2022-07-29T10:08:08;96776.97;;;26.79;49.76
9139;BME280;4604;48.616;9.548;2022-07-29T10:10:36;96771.69;;;27.06;50.40
9139;BME280;4604;48.616;9.548;2022-07-29T10:13:06;96781.56;;;27.12;48.30
9139;BME280;4604;48.616;9.548;2022-07-29T10:15:36;96775.41;;;27.00;46.87
9139;BME280;4604;48.616;9.548;2022-07-29T10:18:05;96768.16;;;27.05;47.57
9139;BME280;4604;48.616;9.548;2022-07-29T10:20:35;96768.91;;;27.01;47.32
9139;BME280;4604;48.616;9.548;2022-07-29T10:23:04;96763.72;;;27.16;46.76
9139;BME280;4604;48.616;9.548;2022-07-29T10:25:37;96774.47;;;27.28;46.19
9139;BME280;4604;48.616;9.548;2022-07-29T10:28:05;96766.25;;;27.40;44.94
9139;BME280;4604;48.616;9.548;2022-07-29T10:30:32;96722.13;;;27.22;45.53
9139;BME280;4604;48.616;9.548;2022-07-29T10:33:27;96769.56;;;27.25;44.88
9139;BME280;4604;48.616;9.548;2022-07-29T10:36:07;96768.25;;;27.10;45.17
9139;BME280;4604;48.616;9.548;2022-07-29T10:38:48;96753.75;;;27.00;44.81
9139;BME280;4604;48.616;9.548;2022-07-29T10:41:36;96748.06;;;27.01;44.97
9139;BME280;4604;48.616;9.548;2022-07-29T10:44:12;96758.41;;;27.04;45.42
9139;BME280;4604;48.616;9.548;2022-07-29T10:46:40;96758.50;;;26.93;45.49
9139;BME280;4604;48.616;9.548;2022-07-29T10:49:08;96759.84;;;26.73;47.24
9139;BME280;4604;48.616;9.548;2022-07-29T10:51:55;96755.22;;;26.74;47.34
9139;BME280;4604;48.616;9.548;2022-07-29T10:54:48;96755.34;;;26.50;47.89
9139;BME280;4604;48.616;9.548;2022-07-29T10:57:20;96754.50;;;26.78;48.18
9139;BME280;4604;48.616;9.548;2022-07-29T10:59:48;96737.81;;;26.86;46.49
9139;BME280;4604;48.616;9.548;2022-07-29T11:02:40;96744.97;;;26.93;47.70
9139;BME280;4604;48.616;9.548;2022-07-29T11:05:10;96729.84;;;26.80;47.33
9139;BME280;4604;48.616;9.548;2022-07-29T11:07:39;96726.06;;;26.98;47.42
9139;BME280;4604;48.616;9.548;2022-07-29T11:10:23;96724.38;;;27.14;47.63
9139;BME280;4604;48.616;9.548;2022-07-29T11:12:50;96737.19;;;27.18;47.68
9139;BME280;4604;48.616;9.548;2022-07-29T11:15:20;96732.09;;;26.83;48.91
9139;BME280;4604;48.616;9.548;2022-07-29T11:18:06;96730.63;;;26.75;49.71
9139;BME280;4604;48.616;9.548;2022-07-29T11:20:39;96749.81;;;26.90;49.31
9139;BME280;4604;48.616;9.548;2022-07-29T11:23:20;96731.91;;;26.89;49.34
9139;BME280;4604;48.616;9.548;2022-07-29T11:26:15;96735.19;;;26.58;49.43
9139;BME280;4604;48.616;9.548;2022-07-29T11:28:51;96732.84;;;26.78;49.93
9139;BME280;4604;48.616;9.548;2022-07-29T11:31:20;96741.69;;;26.90;49.85
9139;BME280;4604;48.616;9.548;2022-07-29T11:34:21;96745.22;;;26.74;49.93
9139;BME280;4604;48.616;9.548;2022-07-29T11:37:13;96746.69;;;26.82;49.76
9139;BME280;4604;48.616;9.548;2022-07-29T11:39:42;96753.47;;;26.34;49.92
9139;BME280;4604;48.616;9.548;2022-07-29T11:42:39;96761.72;;;26.56;48.68
9139;BME280;4604;48.616;9.548;2022-07-29T11:45:08;96765.13;;;26.51;48.55
9139;BME280;4604;48.616;9.548;2022-07-29T11:47:37;96767.63;;;26.41;49.10
9139;BME280;4604;48.616;9.548;2022-07-29T11:50:07;96767.31;;;26.37;50.22
9139;BME280;4604;48.616;9.548;2022-07-29T11:52:35;96767.47;;;26.31;50.87
9139;BME280;4604;48.616;9.548;2022-07-29T11:55:05;96776.97;;;26.33;49.02
9139;BME280;4604;48.616;9.548;2022-07-29T11:57:35;96776.81;;;26.40;48.24
9139;BME280;4604;48.616;9.548;2022-07-29T12:00:05;96785.16;;;25.93;48.65
9139;BME280;4604;48.616;9.548;2022-07-29T12:02:40;96783.81;;;25.43;49.20
9139;BME280;4604;48.616;9.548;2022-07-29T12:05:09;96791.81;;;25.50;48.68
9139;BME280;4604;48.616;9.548;2022-07-29T12:07:37;96782.88;;;25.49;48.95
9139;BME280;4604;48.616;9.548;2022-07-29T12:10:06;96774.75;;;25.61;48.82
9139;BME280;4604;48.616;9.548;2022-07-29T12:12:33;96768.41;;;25.55;49.91
9139;BME280;4604;48.616;9.548;2022-07-29T12:15:17;96756.47;;;25.51;49.62
9139;BME280;4604;48.616;9.548;2022-07-29T12:17:46;96773.88;;;25.84;50.11
9139;BME280;4604;48.616;9.548;2022-07-29T12:20:22;96769.66;;;25.76;50.13
9139;BME280;4604;48.616;9.548;2022-07-29T12:22:49;96753.75;;;25.80;51.17
9139;BME280;4604;48.616;9.548;2022-07-29T12:25:16;96759.38;;;25.61;50.15
9139;BME280;4604;48.616;9.548;2022-07-29T12:27:44;96756.34;;;25.46;50.22
9139;BME280;4604;48.616;9.548;2022-07-29T12:30:13;96761.19;;;25.32;49.70
9139;BME280;4604;48.616;9.548;2022-07-29T12:32:43;96758.59;;;25.37;47.90
9139;BME280;4604;48.616;9.548;2022-07-29T12:35:12;96771.84;;;25.15;49.96
9139;BME280;4604;48.616;9.548;2022-07-29T12:37:41;96789.81;;;24.98;51.55
9139;BME280;4604;48.616;9.548;2022-07-29T12:40:11;96781.94;;;24.85;51.58
9139;BME280;4604;48.616;9.548;2022-07-29T12:42:38;96792.75;;;24.96;51.45
9139;BME280;4604;48.616;9.548;2022-07-29T12:45:06;96791.44;;;24.99;50.64
9139;BME280;4604;48.616;9.548;2022-07-29T12:47:52;96786.31;;;25.09;50.46
9139;BME280;4604;48.616;9.548;2022-07-29T12:50:19;96795.50;;;25.20;50.03
9139;BME280;4604;48.616;9.548;2022-07-29T12:52:46;96802.84;;;25.01;49.96
9139;BME280;4604;48.616;9.548;2022-07-29T12:55:13;96808.38;;;25.06;50.59
9139;BME280;4604;48.616;9.548;2022-07-29T12:57:47;96827.03;;;24.96;50.98
9139;BME280;4604;48.616;9.548;2022-07-29T13:00:16;96835.59;;;24.93;51.41
9139;BME280;4604;48.616;9.548;2022-07-29T13:02:43;96834.78;;;24.92;52.16
9139;BME280;4604;48.616;9.548;2022-07-29T13:05:11;96845.34;;;24.94;52.11
9139;BME280;4604;48.616;9.548;2022-07-29T13:07:39;96852.41;;;24.95;52.96
9139;BME280;4604;48.616;9.548;2022-07-29T13:10:14;96852.28;;;25.02;52.79
9139;BME280;4604;48.616;9.548;2022-07-29T13:13:05;96847.72;;;25.02;52.53
9139;BME280;4604;48.616;9.548;2022-07-29T13:15:33;96834.78;;;25.04;52.36
9139;BME280;4604;48.616;9.548;2022-07-29T13:18:01;96844.78;;;25.04;51.86
9139;BME280;4604;48.616;9.548;2022-07-29T13:20:29;96838.78;;;25.02;52.45
9139;BME280;4604;48.616;9.548;2022-07-29T13:22:57;96839.84;;;25.01;52.90
9139;BME280;4604;48.616;9.548;2022-07-29T13:25:25;96834.44;;;25.01;53.41
9139;BME280;4604;48.616;9.548;2022-07-29T13:27:52;96828.44;;;24.98;54.25
9139;BME280;4604;48.616;9.548;2022-07-29T13:30:20;96826.81;;;24.97;55.18
9139;BME280;4604;48.616;9.548;2022-07-29T13:32:47;96815.06;;;25.04;55.46
9139;BME280;4604;48.616;9.548;2022-07-29T13:35:14;96811.09;;;25.18;54.72
9139;BME280;4604;48.616;9.548;2022-07-29T13:37:43;96803.47;;;25.27;54.40